createdAt,value
2022-08-25T00:00:10.455Z,93.30
2022-08-25T00:01:10.535Z,92.72
2022-08-25T00:02:10.266Z,93.39
2022-08-25T00:03:10.374Z,93.59
2022-08-25T00:04:10.063Z,93.49
2022-08-25T00:05:10.211Z,93.35
2022-08-25T00:06:09.978Z,93.54
2022-08-25T00:07:10.168Z,93.54
2022-08-25T00:08:10.061Z,93.35
2022-08-25T00:09:10.107Z,93.44
2022-08-25T00:10:10.026Z,93.73
2022-08-25T00:11:09.779Z,93.92
2022-08-25T00:12:09.911Z,94.31
2022-08-25T00:13:09.884Z,94.21
2022-08-25T00:14:09.903Z,94.21
2022-08-25T00:15:09.610Z,94.40
2022-08-25T00:16:09.996Z,94.40
2022-08-25T00:17:09.527Z,94.31
2022-08-25T00:18:16.644Z,94.49
2022-08-25T00:19:09.443Z,94.02
2022-08-25T00:20:09.507Z,93.63
2022-08-25T00:21:09.362Z,93.82
2022-08-25T00:22:09.366Z,94.02
2022-08-25T00:23:09.292Z,94.12
2022-08-25T00:24:09.336Z,94.40
2022-08-25T00:25:09.313Z,94.49
2022-08-25T00:26:09.473Z,95.07
2022-08-25T00:27:09.111Z,94.59
2022-08-25T00:28:09.271Z,94.12
2022-08-25T00:29:09.030Z,94.31
2022-08-25T00:30:09.235Z,94.31
2022-08-25T00:31:09.045Z,94.31
2022-08-25T00:32:08.976Z,94.79
2022-08-25T00:33:08.884Z,94.40
2022-08-25T00:34:09.046Z,94.21
2022-08-25T00:35:09.005Z,94.79
2022-08-25T00:36:08.740Z,94.69
2022-08-25T00:37:09.040Z,94.40
2022-08-25T00:38:08.753Z,94.59
2022-08-25T00:39:09.714Z,94.21
2022-08-25T00:40:08.604Z,93.54
2022-08-25T00:41:08.837Z,93.25
2022-08-25T00:42:16.494Z,93.01
2022-08-25T00:43:08.661Z,92.63
2022-08-25T00:44:08.496Z,92.63
2022-08-25T00:45:08.366Z,93.21
2022-08-25T00:46:08.472Z,92.91
2022-08-25T00:47:08.474Z,93.49
2022-08-25T00:48:08.365Z,93.21
2022-08-25T00:49:08.284Z,93.97
2022-08-25T00:50:08.155Z,93.59
2022-08-25T00:51:08.113Z,93.68
2022-08-25T00:52:08.324Z,93.97
2022-08-25T00:53:08.300Z,94.07
2022-08-25T00:54:08.273Z,94.26
2022-08-25T00:55:08.511Z,94.17
2022-08-25T00:56:08.136Z,94.64
2022-08-25T00:57:07.865Z,94.45
2022-08-25T00:58:07.940Z,95.03
2022-08-25T00:59:07.854Z,94.84
2022-08-25T01:00:08.086Z,94.84
2022-08-25T01:01:07.849Z,94.84
2022-08-25T01:02:10.124Z,94.35
2022-08-25T01:03:07.692Z,94.07
2022-08-25T01:04:07.780Z,94.07
2022-08-25T01:05:07.528Z,93.97
2022-08-25T01:06:07.587Z,94.26
2022-08-25T01:07:07.452Z,94.35
2022-08-25T01:08:07.600Z,94.17
2022-08-25T01:09:07.371Z,94.26
2022-08-25T01:10:07.412Z,94.59
2022-08-25T01:11:07.277Z,94.84
2022-08-25T01:12:07.634Z,94.69
2022-08-25T01:13:07.762Z,94.74
2022-08-25T01:14:07.237Z,94.50
2022-08-25T01:15:07.243Z,94.45
2022-08-25T01:16:07.319Z,94.84
2022-08-25T01:17:07.026Z,94.79
2022-08-25T01:18:07.302Z,94.54
2022-08-25T01:19:15.458Z,94.93
2022-08-25T01:20:07.075Z,94.74
2022-08-25T01:21:06.883Z,94.93
2022-08-25T01:22:06.975Z,94.84
2022-08-25T01:23:06.868Z,94.84
2022-08-25T01:24:06.895Z,94.93
2022-08-25T01:25:06.739Z,94.64
2022-08-25T01:26:06.655Z,94.93
2022-08-25T01:27:06.750Z,94.84
2022-08-25T01:28:06.783Z,95.12
2022-08-25T01:29:06.841Z,94.74
2022-08-25T01:30:06.673Z,95.12
2022-08-25T01:31:24.168Z,94.74
2022-08-25T01:32:06.399Z,94.74
2022-08-25T01:33:06.558Z,95.03
2022-08-25T01:34:06.388Z,94.84
2022-08-25T01:35:06.506Z,94.84
2022-08-25T01:36:06.252Z,94.40
2022-08-25T01:37:06.349Z,94.54
2022-08-25T01:38:06.306Z,94.12
2022-08-25T01:39:06.189Z,94.26
2022-08-25T01:40:06.415Z,94.45
2022-08-25T01:41:06.204Z,94.45
2022-08-25T01:42:06.020Z,94.02
2022-08-25T01:43:05.944Z,94.50
2022-08-25T01:44:05.904Z,94.02
2022-08-25T01:45:06.029Z,94.50
2022-08-25T01:46:13.966Z,94.89
2022-08-25T01:47:05.868Z,94.69
2022-08-25T01:48:05.871Z,94.40
2022-08-25T01:49:06.910Z,94.59
2022-08-25T01:50:05.861Z,94.40
2022-08-25T01:51:05.873Z,94.98
2022-08-25T01:52:05.676Z,94.79
2022-08-25T01:53:05.638Z,94.79
2022-08-25T01:54:05.602Z,95.17
2022-08-25T01:55:05.458Z,95.36
2022-08-25T01:56:05.490Z,95.36
2022-08-25T01:57:05.366Z,95.26
2022-08-25T01:58:05.857Z,94.79
2022-08-25T01:59:05.357Z,94.98
2022-08-25T02:00:05.230Z,94.89
2022-08-25T02:01:05.321Z,94.31
2022-08-25T02:02:05.504Z,94.79
2022-08-25T02:03:05.675Z,94.21
2022-08-25T02:04:05.059Z,94.12
2022-08-25T02:05:05.153Z,94.45
2022-08-25T02:06:04.973Z,94.12
2022-08-25T02:07:05.318Z,94.55
2022-08-25T02:08:05.184Z,94.45
2022-08-25T02:09:04.974Z,94.17
2022-08-25T02:10:04.918Z,93.98
2022-08-25T02:11:04.990Z,94.26
2022-08-25T02:12:04.725Z,94.26
2022-08-25T02:13:04.871Z,93.88
2022-08-25T02:14:04.850Z,93.88
2022-08-25T02:15:04.908Z,94.17
2022-08-25T02:16:04.554Z,93.98
2022-08-25T02:17:04.555Z,94.45
2022-08-25T02:18:14.399Z,94.35
2022-08-25T02:19:04.430Z,94.74
2022-08-25T02:20:04.386Z,94.45
2022-08-25T02:21:04.363Z,94.64
2022-08-25T02:22:04.304Z,94.45
2022-08-25T02:23:04.264Z,94.45
2022-08-25T02:24:04.216Z,94.84
2022-08-25T02:25:04.175Z,95.12
2022-08-25T02:26:04.139Z,94.64
2022-08-25T02:27:04.106Z,95.12
2022-08-25T02:28:04.163Z,95.22
2022-08-25T02:29:04.028Z,95.51
2022-08-25T02:30:03.962Z,95.41
2022-08-25T02:31:03.974Z,95.31
2022-08-25T02:32:03.877Z,95.31
2022-08-25T02:33:03.832Z,95.22
2022-08-25T02:34:03.801Z,95.22
2022-08-25T02:35:03.789Z,95.22
2022-08-25T02:36:03.707Z,95.22
2022-08-25T02:37:03.666Z,95.03
2022-08-25T02:38:03.685Z,95.31
2022-08-25T02:39:04.086Z,95.41
2022-08-25T02:40:03.586Z,95.22
2022-08-25T02:41:03.513Z,95.12
2022-08-25T02:42:03.455Z,95.60
2022-08-25T02:43:03.412Z,95.31
2022-08-25T02:44:03.379Z,95.51
2022-08-25T02:45:03.334Z,95.41
2022-08-25T02:46:03.337Z,95.41
2022-08-25T02:47:03.244Z,95.31
2022-08-25T02:48:03.206Z,95.41
2022-08-25T02:49:03.158Z,95.31
2022-08-25T02:50:03.119Z,95.22
2022-08-25T02:51:03.077Z,95.70
2022-08-25T02:52:03.062Z,95.60
2022-08-25T02:53:02.991Z,95.22
2022-08-25T02:54:02.950Z,95.51
2022-08-25T02:55:02.910Z,95.22
2022-08-25T02:56:02.868Z,95.31
2022-08-25T02:57:02.824Z,95.22
2022-08-25T02:58:02.809Z,95.22
2022-08-25T02:59:02.744Z,95.31
2022-08-25T03:00:02.749Z,95.51
2022-08-25T03:01:02.664Z,95.51
2022-08-25T03:02:02.608Z,95.22
2022-08-25T03:03:02.570Z,95.03
2022-08-25T03:04:02.538Z,94.64
2022-08-25T03:05:02.562Z,94.84
2022-08-25T03:06:02.455Z,94.60
2022-08-25T03:07:02.402Z,94.98
2022-08-25T03:08:02.475Z,94.89
2022-08-25T03:09:02.328Z,94.79
2022-08-25T03:10:02.274Z,94.69
2022-08-25T03:11:02.226Z,94.98
2022-08-25T03:12:02.186Z,94.98
2022-08-25T03:13:02.144Z,95.17
2022-08-25T03:14:02.096Z,94.79
2022-08-25T03:15:02.071Z,95.46
2022-08-25T03:16:02.972Z,95.07
2022-08-25T03:17:02.018Z,95.36
2022-08-25T03:18:02.911Z,95.36
2022-08-25T03:19:01.891Z,95.27
2022-08-25T03:20:01.845Z,95.17
2022-08-25T03:21:01.822Z,94.79
2022-08-25T03:22:01.782Z,94.98
2022-08-25T03:23:01.721Z,95.17
2022-08-25T03:24:01.676Z,94.98
2022-08-25T03:25:01.679Z,95.07
2022-08-25T03:26:01.885Z,94.98
2022-08-25T03:27:01.571Z,95.07
2022-08-25T03:28:01.539Z,95.36
2022-08-25T03:29:01.485Z,95.07
2022-08-25T03:30:02.018Z,95.27
2022-08-25T03:31:01.407Z,95.27
2022-08-25T03:32:01.396Z,95.46
2022-08-25T03:33:01.296Z,95.36
2022-08-25T03:34:01.254Z,95.27
2022-08-25T03:35:01.224Z,94.98
2022-08-25T03:36:01.173Z,95.27
2022-08-25T03:37:01.130Z,95.36
2022-08-25T03:38:01.086Z,94.89
2022-08-25T03:39:01.045Z,95.07
2022-08-25T03:40:01.040Z,94.79
2022-08-25T03:41:00.980Z,94.69
2022-08-25T03:42:00.918Z,94.89
2022-08-25T03:43:00.876Z,94.79
2022-08-25T03:44:00.833Z,94.98
2022-08-25T03:45:00.787Z,95.07
2022-08-25T03:46:00.769Z,95.17
2022-08-25T03:47:00.715Z,95.07
2022-08-25T03:48:00.664Z,95.27
2022-08-25T03:49:00.640Z,95.36
2022-08-25T03:50:00.573Z,95.27
2022-08-25T03:51:00.538Z,95.27
2022-08-25T03:52:00.493Z,95.07
2022-08-25T03:53:00.452Z,95.17
2022-08-25T03:54:00.451Z,95.36
2022-08-25T03:55:00.374Z,95.17
2022-08-25T03:56:00.325Z,95.27
2022-08-25T03:57:00.283Z,95.36
2022-08-25T03:58:00.236Z,95.46
2022-08-25T03:59:00.201Z,95.46
2022-08-25T04:00:00.170Z,95.36
2022-08-25T04:01:00.146Z,95.07
2022-08-25T04:02:00.123Z,95.27
2022-08-25T04:03:00.043Z,95.27
2022-08-25T04:03:59.985Z,95.07
2022-08-25T04:04:59.941Z,95.17
2022-08-25T04:05:59.900Z,95.07
2022-08-25T04:06:59.854Z,95.27
2022-08-25T04:07:59.837Z,95.36
2022-08-25T04:08:59.962Z,94.98
2022-08-25T04:09:59.724Z,95.27
2022-08-25T04:10:59.688Z,95.36
2022-08-25T04:11:59.646Z,95.07
2022-08-25T04:12:59.602Z,95.27
2022-08-25T04:13:59.557Z,95.17
2022-08-25T04:15:07.444Z,95.27
2022-08-25T04:15:59.673Z,95.36
2022-08-25T04:16:59.509Z,95.27
2022-08-25T04:17:59.461Z,94.69
2022-08-25T04:18:59.925Z,94.79
2022-08-25T04:19:59.446Z,94.98
2022-08-25T04:20:59.473Z,95.03
2022-08-25T04:21:59.392Z,95.07
2022-08-25T04:22:59.394Z,95.36
2022-08-25T04:23:59.317Z,95.12
2022-08-25T04:24:59.204Z,95.94
2022-08-25T04:25:59.047Z,95.51
2022-08-25T04:26:59.216Z,95.51
2022-08-25T04:27:59.005Z,95.98
2022-08-25T04:28:58.918Z,95.61
2022-08-25T04:29:59.073Z,96.03
2022-08-25T04:30:58.840Z,95.65
2022-08-25T04:31:59.290Z,95.65
2022-08-25T04:32:58.925Z,96.22
2022-08-25T04:33:58.970Z,95.56
2022-08-25T04:34:58.668Z,95.56
2022-08-25T04:35:58.872Z,95.61
2022-08-25T04:36:58.578Z,95.56
2022-08-25T04:37:58.687Z,95.27
2022-08-25T04:38:58.710Z,95.75
2022-08-25T04:39:58.491Z,94.98
2022-08-25T04:40:58.480Z,95.75
2022-08-25T04:41:58.506Z,95.56
2022-08-25T04:42:58.945Z,95.07
2022-08-25T04:43:58.696Z,94.98
2022-08-25T04:44:58.684Z,95.17
2022-08-25T04:45:58.261Z,95.07
2022-08-25T04:46:58.288Z,95.07
2022-08-25T04:47:58.532Z,95.46
2022-08-25T04:48:58.291Z,95.36
2022-08-25T04:49:58.154Z,95.27
2022-08-25T04:50:58.463Z,95.17
2022-08-25T04:51:57.941Z,95.27
2022-08-25T04:52:58.081Z,95.17
2022-08-25T04:53:57.859Z,95.17
2022-08-25T04:54:58.176Z,94.79
2022-08-25T04:56:01.870Z,94.79
2022-08-25T04:56:58.149Z,94.89
2022-08-25T04:57:57.686Z,94.98
2022-08-25T04:59:05.481Z,94.89
2022-08-25T04:59:57.612Z,94.79
2022-08-25T05:00:57.581Z,94.79
2022-08-25T05:01:57.534Z,94.93
2022-08-25T05:02:57.475Z,94.89
2022-08-25T05:03:57.514Z,94.93
2022-08-25T05:04:57.385Z,94.64
2022-08-25T05:05:57.374Z,94.84
2022-08-25T05:06:57.315Z,94.74
2022-08-25T05:07:57.268Z,94.74
2022-08-25T05:08:57.226Z,94.74
2022-08-25T05:09:57.295Z,94.45
2022-08-25T05:10:57.194Z,94.55
2022-08-25T05:11:57.095Z,94.45
2022-08-25T05:12:57.059Z,94.84
2022-08-25T05:13:57.017Z,94.26
2022-08-25T05:14:57.193Z,94.07
2022-08-25T05:15:56.985Z,94.35
2022-08-25T05:16:56.886Z,94.35
2022-08-25T05:17:56.838Z,94.45
2022-08-25T05:18:56.800Z,94.35
2022-08-25T05:19:56.755Z,94.45
2022-08-25T05:20:56.725Z,94.74
2022-08-25T05:21:57.724Z,93.98
2022-08-25T05:22:56.627Z,94.64
2022-08-25T05:23:56.588Z,94.26
2022-08-25T05:24:56.566Z,94.07
2022-08-25T05:25:56.502Z,93.98
2022-08-25T05:26:56.461Z,94.07
2022-08-25T05:27:56.417Z,94.26
2022-08-25T05:28:56.380Z,94.07
2022-08-25T05:29:56.332Z,94.07
2022-08-25T05:30:56.314Z,93.98
2022-08-25T05:31:56.314Z,94.26
2022-08-25T05:32:56.206Z,94.26
2022-08-25T05:33:56.176Z,94.17
2022-08-25T05:34:56.135Z,94.17
2022-08-25T05:35:56.087Z,93.40
2022-08-25T05:36:56.046Z,93.59
2022-08-25T05:37:56.014Z,93.69
2022-08-25T05:38:55.960Z,93.59
2022-08-25T05:39:55.976Z,93.11
2022-08-25T05:40:55.871Z,93.69
2022-08-25T05:41:55.827Z,93.69
2022-08-25T05:42:55.784Z,93.02
2022-08-25T05:43:55.757Z,93.40
2022-08-25T05:44:55.697Z,93.40
2022-08-25T05:45:55.861Z,93.59
2022-08-25T05:46:55.617Z,93.69
2022-08-25T05:47:55.570Z,93.59
2022-08-25T05:48:55.528Z,93.59
2022-08-25T05:49:55.489Z,94.31
2022-08-25T05:50:55.451Z,94.31
2022-08-25T05:51:55.431Z,94.40
2022-08-25T05:52:55.363Z,94.21
2022-08-25T05:53:55.323Z,94.40
2022-08-25T05:54:55.299Z,94.12
2022-08-25T05:55:55.244Z,93.63
2022-08-25T05:56:55.207Z,94.02
2022-08-25T05:57:55.167Z,93.63
2022-08-25T05:58:55.113Z,93.63
2022-08-25T05:59:55.076Z,93.73
2022-08-25T06:03:47.046Z,93.16
2022-08-25T06:04:46.638Z,93.73
2022-08-25T06:05:46.853Z,93.54
2022-08-25T06:06:46.550Z,93.83
2022-08-25T06:07:46.634Z,94.40
2022-08-25T06:08:46.465Z,94.21
2022-08-25T06:09:46.670Z,94.50
2022-08-25T06:10:46.389Z,94.69
2022-08-25T06:11:46.481Z,94.50
2022-08-25T06:12:46.291Z,94.40
2022-08-25T06:13:46.508Z,94.40
2022-08-25T06:14:46.206Z,94.54
2022-08-25T06:15:47.514Z,94.74
2022-08-25T06:16:46.176Z,94.45
2022-08-25T06:17:46.078Z,94.35
2022-08-25T06:18:46.044Z,94.93
2022-08-25T06:19:46.119Z,94.64
2022-08-25T06:20:45.980Z,94.45
2022-08-25T06:21:46.168Z,95.03
2022-08-25T06:22:45.871Z,94.45
2022-08-25T06:23:45.857Z,94.84
2022-08-25T06:24:45.789Z,94.74
2022-08-25T06:25:45.957Z,94.79
2022-08-25T06:26:46.022Z,94.88
2022-08-25T06:27:45.756Z,94.69
2022-08-25T06:28:45.632Z,94.98
2022-08-25T06:29:45.576Z,94.31
2022-08-25T06:30:45.536Z,94.79
2022-08-25T06:31:46.722Z,94.69
2022-08-25T06:32:45.470Z,94.16
2022-08-25T06:33:45.680Z,94.45
2022-08-25T06:34:45.367Z,94.21
2022-08-25T06:35:45.411Z,94.35
2022-08-25T06:36:45.390Z,94.45
2022-08-25T06:37:45.626Z,94.16
2022-08-25T06:38:45.220Z,94.16
2022-08-25T06:39:45.532Z,94.35
2022-08-25T06:40:45.236Z,93.77
2022-08-25T06:41:45.079Z,94.16
2022-08-25T06:42:45.257Z,94.64
2022-08-25T06:43:48.855Z,93.68
2022-08-25T06:44:45.269Z,93.30
2022-08-25T06:45:45.006Z,93.59
2022-08-25T06:46:45.269Z,93.68
2022-08-25T06:47:45.625Z,93.82
2022-08-25T06:48:44.888Z,92.96
2022-08-25T06:49:44.743Z,93.34
2022-08-25T06:50:45.109Z,93.15
2022-08-25T06:51:44.658Z,93.54
2022-08-25T06:52:44.618Z,93.34
2022-08-25T06:53:44.612Z,93.05
2022-08-25T06:54:44.734Z,93.34
2022-08-25T06:55:44.493Z,93.39
2022-08-25T06:56:44.742Z,93.58
2022-08-25T06:57:44.415Z,93.19
2022-08-25T06:58:44.400Z,93.19
2022-08-25T06:59:44.606Z,93.19
2022-08-25T07:00:44.357Z,93.10
2022-08-25T07:01:44.496Z,93.10
2022-08-25T07:02:44.492Z,93.15
2022-08-25T07:03:44.407Z,93.34
2022-08-25T07:04:44.123Z,92.76
2022-08-25T07:05:44.268Z,93.05
2022-08-25T07:06:44.047Z,92.57
2022-08-25T07:07:44.355Z,92.67
2022-08-25T07:08:44.137Z,92.47
2022-08-25T07:09:44.014Z,92.09
2022-08-25T07:10:47.935Z,92.04
2022-08-25T07:11:44.031Z,92.04
2022-08-25T07:12:43.795Z,91.66
2022-08-25T07:13:43.841Z,91.85
2022-08-25T07:14:58.104Z,91.85
2022-08-25T07:15:43.703Z,91.51
2022-08-25T07:16:48.733Z,91.99
2022-08-25T07:17:51.338Z,91.56
2022-08-25T07:18:44.073Z,91.13
2022-08-25T07:19:43.535Z,90.45
2022-08-25T07:20:44.716Z,90.73
2022-08-25T07:21:43.429Z,90.35
2022-08-25T07:22:43.498Z,89.87
2022-08-25T07:23:43.564Z,89.97
2022-08-25T07:24:43.513Z,89.34
2022-08-25T07:25:43.312Z,89.43
2022-08-25T07:26:43.329Z,89.43
2022-08-25T07:27:43.328Z,89.24
2022-08-25T07:28:47.346Z,89.43
2022-08-25T07:29:43.340Z,88.85
2022-08-25T07:30:43.060Z,88.90
2022-08-25T07:31:43.245Z,88.42
2022-08-25T07:32:43.283Z,88.81
2022-08-25T07:33:43.229Z,87.94
2022-08-25T07:34:44.123Z,88.04
2022-08-25T07:35:43.789Z,87.46
2022-08-25T07:36:42.820Z,87.21
2022-08-25T07:37:49.307Z,87.30
2022-08-25T07:38:42.736Z,86.63
2022-08-25T07:39:42.725Z,86.63
2022-08-25T07:40:43.221Z,86.73
2022-08-25T07:41:42.711Z,86.15
2022-08-25T07:42:42.635Z,86.15
2022-08-25T07:43:42.732Z,86.44
2022-08-25T07:44:43.361Z,85.47
2022-08-25T07:45:46.915Z,85.57
2022-08-25T07:46:42.700Z,85.71
2022-08-25T07:47:42.391Z,85.91
2022-08-25T07:48:42.561Z,85.91
2022-08-25T07:49:42.303Z,85.71
2022-08-25T07:50:42.284Z,85.52
2022-08-25T07:51:44.035Z,85.71
2022-08-25T07:52:42.186Z,84.69
2022-08-25T07:53:42.398Z,84.98
2022-08-25T07:54:42.100Z,85.27
2022-08-25T07:55:42.241Z,85.17
2022-08-25T07:56:42.410Z,84.59
2022-08-25T07:57:42.002Z,84.50
2022-08-25T07:58:42.277Z,84.59
2022-08-25T07:59:41.927Z,84.21
2022-08-25T08:00:42.402Z,84.79
2022-08-25T08:01:41.853Z,84.31
2022-08-25T08:02:41.904Z,84.21
2022-08-25T08:03:50.285Z,84.35
2022-08-25T08:04:41.854Z,83.96
2022-08-25T08:05:41.669Z,83.87
2022-08-25T08:06:41.883Z,83.19
2022-08-25T08:07:43.163Z,83.29
2022-08-25T08:08:41.726Z,83.19
2022-08-25T08:09:41.710Z,83.33
2022-08-25T08:11:02.736Z,83.42
2022-08-25T08:11:45.178Z,82.56
2022-08-25T08:12:41.390Z,82.84
2022-08-25T08:13:41.614Z,82.65
2022-08-25T08:14:44.965Z,82.84
2022-08-25T08:15:41.304Z,82.26
2022-08-25T08:16:41.326Z,82.69
2022-08-25T08:17:41.192Z,81.82
2022-08-25T08:18:41.349Z,81.63
2022-08-25T08:19:44.849Z,81.24
2022-08-25T08:20:43.092Z,81.34
2022-08-25T08:21:41.033Z,81.44
2022-08-25T08:22:41.177Z,80.90
2022-08-25T08:23:40.962Z,81.09
2022-08-25T08:24:44.760Z,80.22
2022-08-25T08:25:40.878Z,80.71
2022-08-25T08:26:57.760Z,79.78
2022-08-25T08:27:40.800Z,79.04
2022-08-25T08:28:41.013Z,78.59
2022-08-25T08:29:40.731Z,77.63
2022-08-25T08:30:40.818Z,76.79
2022-08-25T08:31:40.919Z,76.06
2022-08-25T08:33:06.233Z,75.77
2022-08-25T08:33:41.072Z,74.06
2022-08-25T08:34:40.544Z,73.80
2022-08-25T08:35:40.869Z,72.35
2022-08-25T08:36:40.458Z,71.70
2022-08-25T08:37:40.429Z,69.22
2022-08-25T08:38:40.604Z,68.15
2022-08-25T08:39:40.472Z,67.89
2022-08-25T08:40:40.302Z,67.63
2022-08-25T08:42:09.622Z,66.17
2022-08-25T08:42:40.493Z,63.68
2022-08-25T08:43:40.192Z,62.61
2022-08-25T08:44:40.303Z,61.57
2022-08-25T08:45:43.609Z,60.70
2022-08-25T08:46:40.381Z,60.70
2022-08-25T08:47:40.044Z,60.02
2022-08-25T08:48:40.129Z,59.82
2022-08-25T08:49:39.972Z,59.14
2022-08-25T08:50:40.354Z,58.95
2022-08-25T08:51:39.905Z,58.39
2022-08-25T08:52:40.158Z,57.32
2022-08-25T08:53:39.829Z,57.03
2022-08-25T08:54:41.219Z,55.60
2022-08-25T08:55:39.755Z,55.30
2022-08-25T08:56:45.337Z,55.23
2022-08-25T08:57:39.930Z,54.36
2022-08-25T08:58:39.793Z,54.28
2022-08-25T08:59:39.619Z,53.92
2022-08-25T09:00:39.589Z,53.46
2022-08-25T09:01:39.579Z,52.78
2022-08-25T09:02:51.454Z,51.92
2022-08-25T09:03:39.924Z,51.56
2022-08-25T09:04:39.626Z,50.49
2022-08-25T09:05:43.816Z,49.63
2022-08-25T09:06:39.643Z,48.77
2022-08-25T09:07:39.495Z,48.97
2022-08-25T09:08:39.448Z,48.38
2022-08-25T09:09:39.275Z,47.31
2022-08-25T09:10:39.462Z,46.75
2022-08-25T09:11:39.494Z,46.86
2022-08-25T09:12:39.256Z,46.50
2022-08-25T09:13:39.164Z,44.05
2022-08-25T09:14:39.302Z,43.38
2022-08-25T09:15:41.033Z,43.51
2022-08-25T09:16:39.259Z,43.33
2022-08-25T09:17:39.016Z,42.57
2022-08-25T09:18:41.272Z,42.19
2022-08-25T09:19:41.891Z,41.63
2022-08-25T09:20:39.029Z,40.17
2022-08-25T09:21:38.900Z,39.19
2022-08-25T09:22:39.038Z,38.72
2022-08-25T09:23:38.831Z,38.54
2022-08-25T09:24:39.065Z,38.46
2022-08-25T09:25:54.416Z,37.59
2022-08-25T09:26:38.732Z,36.72
2022-08-25T09:27:38.876Z,35.56
2022-08-25T09:28:38.879Z,35.46
2022-08-25T09:29:38.646Z,35.56
2022-08-25T09:30:38.898Z,35.27
2022-08-25T09:31:38.647Z,34.89
2022-08-25T09:32:38.717Z,34.71
2022-08-25T09:33:38.527Z,33.74
2022-08-25T09:34:38.507Z,34.05
2022-08-25T09:35:38.732Z,32.78
2022-08-25T09:36:38.576Z,32.60
2022-08-25T09:37:38.544Z,31.81
2022-08-25T09:38:38.544Z,31.94
2022-08-25T09:39:38.557Z,31.15
2022-08-25T09:40:38.331Z,30.37
2022-08-25T09:41:38.571Z,30.27
2022-08-25T09:42:38.295Z,29.91
2022-08-25T09:43:38.378Z,29.33
2022-08-25T09:44:38.214Z,29.14
2022-08-25T09:45:38.497Z,28.66
2022-08-25T09:46:38.204Z,28.67
2022-08-25T09:47:38.403Z,27.80
2022-08-25T09:48:40.694Z,27.51
2022-08-25T09:49:38.214Z,26.93
2022-08-25T09:50:38.057Z,25.84
2022-08-25T09:51:43.073Z,25.74
2022-08-25T09:52:38.235Z,25.46
2022-08-25T09:53:38.288Z,25.46
2022-08-25T09:54:44.208Z,24.47
2022-08-25T09:55:37.914Z,24.37
2022-08-25T09:56:37.886Z,24.15
2022-08-25T09:57:37.859Z,24.15
2022-08-25T09:58:37.980Z,23.85
2022-08-25T09:59:37.829Z,24.13
2022-08-25T10:00:37.987Z,23.83
2022-08-25T10:01:37.805Z,23.93
2022-08-25T10:02:37.731Z,24.44
2022-08-25T10:03:37.698Z,24.05
2022-08-25T10:04:37.810Z,24.54
2022-08-25T10:05:37.868Z,24.05
2022-08-25T10:06:37.824Z,23.75
2022-08-25T10:07:37.597Z,23.35
2022-08-25T10:08:37.569Z,23.46
2022-08-25T10:09:37.553Z,23.85
2022-08-25T10:10:37.652Z,23.54
2022-08-25T10:11:37.568Z,23.85
2022-08-25T10:12:37.661Z,24.13
2022-08-25T10:13:37.519Z,24.15
2022-08-25T10:14:37.504Z,23.65
2022-08-25T10:15:37.742Z,23.66
2022-08-25T10:16:37.395Z,23.26
2022-08-25T10:17:37.705Z,23.16
2022-08-25T10:18:37.299Z,23.27
2022-08-25T10:19:37.508Z,22.97
2022-08-25T10:20:37.247Z,22.97
2022-08-25T10:21:37.522Z,23.76
2022-08-25T10:22:37.213Z,23.56
2022-08-25T10:23:37.335Z,23.77
2022-08-25T10:24:37.144Z,23.38
2022-08-25T10:25:37.352Z,22.89
2022-08-25T10:26:37.118Z,23.30
2022-08-25T10:27:37.361Z,22.30
2022-08-25T10:28:37.049Z,22.81
2022-08-25T10:29:37.376Z,22.91
2022-08-25T10:30:37.024Z,22.62
2022-08-25T10:31:37.186Z,22.03
2022-08-25T10:32:36.931Z,21.64
2022-08-25T10:33:37.200Z,21.25
2022-08-25T10:34:36.880Z,21.37
2022-08-25T10:35:38.036Z,20.76
2022-08-25T10:36:36.835Z,21.47
2022-08-25T10:37:37.032Z,20.79
2022-08-25T10:38:36.780Z,21.09
2022-08-25T10:39:37.088Z,19.99
2022-08-25T10:40:36.926Z,20.67
2022-08-25T10:41:36.878Z,21.17
2022-08-25T10:42:36.682Z,20.78
2022-08-25T10:43:36.651Z,20.67
2022-08-25T10:44:36.638Z,20.87
2022-08-25T10:45:37.119Z,20.78
2022-08-25T10:46:36.680Z,20.47
2022-08-25T10:47:36.696Z,19.88
2022-08-25T10:48:36.542Z,20.29
2022-08-25T10:49:36.500Z,20.68
2022-08-25T10:50:36.725Z,20.50
2022-08-25T10:51:37.484Z,20.90
2022-08-25T10:52:37.547Z,19.92
2022-08-25T10:53:36.403Z,19.71
2022-08-25T10:54:36.383Z,19.92
2022-08-25T10:55:40.310Z,19.64
2022-08-25T10:56:37.045Z,19.83
2022-08-25T10:57:36.356Z,19.53
2022-08-25T10:58:36.577Z,19.32
2022-08-25T10:59:36.251Z,19.23
2022-08-25T11:00:36.242Z,19.21
2022-08-25T11:01:43.673Z,19.51
2022-08-25T11:02:36.182Z,20.51
2022-08-25T11:03:36.806Z,20.01
2022-08-25T11:04:36.378Z,19.70
2022-08-25T11:05:36.457Z,19.31
2022-08-25T11:06:36.080Z,19.81
2022-08-25T11:07:36.223Z,19.90
2022-08-25T11:08:36.036Z,20.90
2022-08-25T11:09:36.530Z,20.18
2022-08-25T11:10:35.989Z,20.90
2022-08-25T11:11:36.132Z,19.81
2022-08-25T11:12:35.935Z,20.03
2022-08-25T11:13:36.159Z,19.93
2022-08-25T11:14:35.896Z,19.54
2022-08-25T11:15:35.881Z,19.15
2022-08-25T11:16:37.054Z,18.76
2022-08-25T11:17:35.841Z,18.46
2022-08-25T11:18:35.990Z,18.48
2022-08-25T11:19:35.769Z,18.37
2022-08-25T11:20:36.007Z,17.38
2022-08-25T11:21:35.977Z,16.99
2022-08-25T11:22:36.025Z,16.99
2022-08-25T11:23:35.673Z,16.69
2022-08-25T11:24:36.224Z,17.19
2022-08-25T11:25:35.624Z,16.68
2022-08-25T11:26:37.198Z,17.18
2022-08-25T11:27:35.905Z,17.28
2022-08-25T11:28:35.556Z,17.06
2022-08-25T11:29:35.873Z,17.56
2022-08-25T11:30:35.548Z,16.86
2022-08-25T11:31:35.678Z,17.17
2022-08-25T11:32:35.474Z,17.38
2022-08-25T11:33:35.595Z,17.18
2022-08-25T11:34:35.418Z,16.78
2022-08-25T11:35:35.499Z,16.09
2022-08-25T11:36:35.374Z,15.48
2022-08-25T11:37:35.523Z,15.77
2022-08-25T11:38:35.327Z,16.07
2022-08-25T11:39:35.576Z,16.17
2022-08-25T11:40:35.290Z,15.88
2022-08-25T11:41:35.547Z,16.59
2022-08-25T11:42:35.250Z,16.49
2022-08-25T11:43:35.789Z,16.48
2022-08-25T11:44:35.190Z,16.29
2022-08-25T11:45:35.189Z,16.09
2022-08-25T11:46:35.377Z,16.30
2022-08-25T11:47:35.147Z,15.89
2022-08-25T11:48:35.799Z,15.78
2022-08-25T11:49:35.106Z,15.89
2022-08-25T11:50:35.362Z,15.68
2022-08-25T11:51:36.399Z,16.67
2022-08-25T11:52:35.214Z,16.36
2022-08-25T11:53:34.982Z,16.67
2022-08-25T11:54:35.127Z,16.17
2022-08-25T11:55:35.182Z,16.47
2022-08-25T11:56:35.176Z,16.46
2022-08-25T11:57:34.895Z,16.87
2022-08-25T11:58:34.947Z,16.58
2022-08-25T11:59:34.845Z,15.78
2022-08-25T12:00:35.079Z,16.29
2022-08-25T12:01:34.825Z,15.68
2022-08-25T12:02:34.779Z,16.07
2022-08-25T12:03:34.755Z,15.58
2022-08-25T12:04:35.657Z,15.69
2022-08-25T12:05:34.791Z,15.69
2022-08-25T12:06:34.802Z,15.00
2022-08-25T12:07:34.685Z,14.70
2022-08-25T12:08:34.645Z,15.40
2022-08-25T12:09:34.827Z,14.79
2022-08-25T12:10:34.597Z,15.60
2022-08-25T12:11:34.636Z,16.00
2022-08-25T12:12:34.574Z,16.81
2022-08-25T12:13:34.857Z,15.70
2022-08-25T12:14:34.507Z,15.60
2022-08-25T12:15:34.663Z,15.11
2022-08-25T12:16:34.503Z,15.00
2022-08-25T12:17:34.480Z,14.90
2022-08-25T12:18:34.418Z,14.40
2022-08-25T12:19:34.426Z,15.11
2022-08-25T12:20:34.547Z,14.41
2022-08-25T12:21:34.505Z,14.22
2022-08-25T12:22:34.335Z,14.53
2022-08-25T12:23:34.419Z,14.53
2022-08-25T12:24:34.289Z,14.73
2022-08-25T12:25:34.299Z,14.23
2022-08-25T12:26:34.261Z,13.82
2022-08-25T12:27:34.341Z,14.13
2022-08-25T12:28:35.025Z,13.82
2022-08-25T12:29:34.358Z,13.93
2022-08-25T12:30:36.595Z,13.71
2022-08-25T12:31:34.147Z,14.51
2022-08-25T12:32:34.172Z,14.41
2022-08-25T12:33:34.098Z,14.41
2022-08-25T12:34:34.189Z,14.22
2022-08-25T12:35:34.054Z,13.41
2022-08-25T12:36:34.408Z,12.90
2022-08-25T12:37:34.020Z,13.40
2022-08-25T12:38:34.734Z,13.90
2022-08-25T12:39:33.958Z,14.10
2022-08-25T12:40:34.114Z,13.70
2022-08-25T12:41:33.932Z,13.81
2022-08-25T12:42:33.919Z,13.22
2022-08-25T12:43:37.440Z,13.23
2022-08-25T12:44:34.057Z,13.34
2022-08-25T12:45:33.876Z,13.04
2022-08-25T12:46:33.865Z,12.34
2022-08-25T12:47:33.792Z,12.24
2022-08-25T12:48:33.928Z,12.13
2022-08-25T12:49:33.887Z,13.25
2022-08-25T12:50:33.733Z,13.06
2022-08-25T12:51:33.900Z,13.06
2022-08-25T12:52:33.689Z,13.26
2022-08-25T12:53:33.663Z,13.16
2022-08-25T12:54:33.678Z,13.06